sensor_id;sensor_type;location;lat;lon;timestamp;P1;durP1;ratioP1;P2;durP2;ratioP2
25649;SDS011;13505;45.196;5.696;2023-12-20T05:32:33;38.90;;;18.23;;
25649;SDS011;13505;45.196;5.696;2023-12-20T05:37:24;30.20;;;15.80;;
25649;SDS011;13505;45.196;5.696;2023-12-20T05:42:14;70.55;;;28.10;;
25649;SDS011;13505;45.196;5.696;2023-12-20T05:47:04;73.40;;;27.58;;
25649;SDS011;13505;45.196;5.696;2023-12-20T05:51:55;82.82;;;32.30;;
25649;SDS011;13505;45.196;5.696;2023-12-20T05:56:45;80.88;;;32.38;;
25649;SDS011;13505;45.196;5.696;2023-12-20T06:01:36;41.95;;;21.52;;
25649;SDS011;13505;45.196;5.696;2023-12-20T06:06:26;30.48;;;17.25;;
25649;SDS011;13505;45.196;5.696;2023-12-20T06:11:16;30.20;;;16.95;;
25649;SDS011;13505;45.196;5.696;2023-12-20T06:16:07;30.90;;;17.48;;
25649;SDS011;13505;45.196;5.696;2023-12-20T06:20:57;37.67;;;18.63;;
25649;SDS011;13505;45.196;5.696;2023-12-20T06:25:48;34.10;;;18.75;;
25649;SDS011;13505;45.196;5.696;2023-12-20T06:30:38;33.95;;;18.02;;
25649;SDS011;13505;45.196;5.696;2023-12-20T06:35:28;44.20;;;21.33;;
25649;SDS011;13505;45.196;5.696;2023-12-20T06:40:19;41.47;;;20.77;;
25649;SDS011;13505;45.196;5.696;2023-12-20T06:45:09;46.50;;;21.30;;
25649;SDS011;13505;45.196;5.696;2023-12-20T06:50:00;44.05;;;21.65;;
25649;SDS011;13505;45.196;5.696;2023-12-20T06:54:51;45.22;;;22.77;;
25649;SDS011;13505;45.196;5.696;2023-12-20T06:59:41;60.33;;;25.93;;
25649;SDS011;13505;45.196;5.696;2023-12-20T07:04:31;57.13;;;27.63;;
25649;SDS011;13505;45.196;5.696;2023-12-20T07:09:22;58.90;;;27.88;;
25649;SDS011;13505;45.196;5.696;2023-12-20T07:14:12;60.00;;;28.05;;
25649;SDS011;13505;45.196;5.696;2023-12-20T07:19:02;66.30;;;29.23;;
25649;SDS011;13505;45.196;5.696;2023-12-20T07:23:53;99.05;;;44.15;;
25649;SDS011;13505;45.196;5.696;2023-12-20T07:28:43;76.07;;;33.20;;
25649;SDS011;13505;45.196;5.696;2023-12-20T07:33:34;64.50;;;28.30;;
25649;SDS011;13505;45.196;5.696;2023-12-20T07:38:24;92.22;;;35.95;;
25649;SDS011;13505;45.196;5.696;2023-12-20T07:43:14;120.22;;;45.65;;
25649;SDS011;13505;45.196;5.696;2023-12-20T07:48:05;120.18;;;45.95;;
25649;SDS011;13505;45.196;5.696;2023-12-20T07:52:56;131.45;;;48.40;;
25649;SDS011;13505;45.196;5.696;2023-12-20T07:57:49;117.90;;;46.38;;
25649;SDS011;13505;45.196;5.696;2023-12-20T08:02:39;79.40;;;34.53;;
25649;SDS011;13505;45.196;5.696;2023-12-20T08:07:30;77.43;;;33.10;;
25649;SDS011;13505;45.196;5.696;2023-12-20T08:12:20;67.03;;;30.42;;
25649;SDS011;13505;45.196;5.696;2023-12-20T08:17:10;54.85;;;24.35;;
25649;SDS011;13505;45.196;5.696;2023-12-20T08:22:01;39.88;;;20.27;;
25649;SDS011;13505;45.196;5.696;2023-12-20T08:26:51;42.53;;;19.63;;
25649;SDS011;13505;45.196;5.696;2023-12-20T08:31:42;44.90;;;20.33;;
25649;SDS011;13505;45.196;5.696;2023-12-20T08:36:32;53.50;;;21.88;;
25649;SDS011;13505;45.196;5.696;2023-12-20T08:41:23;43.50;;;22.67;;
25649;SDS011;13505;45.196;5.696;2023-12-20T08:46:14;50.85;;;24.35;;
25649;SDS011;13505;45.196;5.696;2023-12-20T08:51:05;59.10;;;27.52;;
25649;SDS011;13505;45.196;5.696;2023-12-20T08:55:58;53.95;;;25.92;;
25649;SDS011;13505;45.196;5.696;2023-12-20T09:00:51;57.42;;;27.58;;
25649;SDS011;13505;45.196;5.696;2023-12-20T09:05:41;47.90;;;24.67;;
25649;SDS011;13505;45.196;5.696;2023-12-20T09:10:31;46.58;;;24.30;;
25649;SDS011;13505;45.196;5.696;2023-12-20T09:15:25;49.60;;;24.67;;
25649;SDS011;13505;45.196;5.696;2023-12-20T09:20:16;51.28;;;24.63;;
25649;SDS011;13505;45.196;5.696;2023-12-20T09:25:07;44.70;;;22.35;;
25649;SDS011;13505;45.196;5.696;2023-12-20T09:29:58;42.08;;;13.45;;
25649;SDS011;13505;45.196;5.696;2023-12-20T09:34:48;12.50;;;6.43;;
25649;SDS011;13505;45.196;5.696;2023-12-20T09:39:39;8.85;;;4.97;;
25649;SDS011;13505;45.196;5.696;2023-12-20T09:44:29;5.47;;;3.58;;
25649;SDS011;13505;45.196;5.696;2023-12-20T09:49:21;9.15;;;4.45;;
25649;SDS011;13505;45.196;5.696;2023-12-20T09:54:14;6.38;;;3.83;;
25649;SDS011;13505;45.196;5.696;2023-12-20T09:59:06;9.48;;;4.45;;
25649;SDS011;13505;45.196;5.696;2023-12-20T10:03:57;6.22;;;3.90;;
25649;SDS011;13505;45.196;5.696;2023-12-20T10:08:49;8.73;;;4.40;;
25649;SDS011;13505;45.196;5.696;2023-12-20T10:13:39;12.25;;;4.00;;
25649;SDS011;13505;45.196;5.696;2023-12-20T10:18:31;7.50;;;4.30;;
25649;SDS011;13505;45.196;5.696;2023-12-20T10:23:22;8.57;;;4.68;;
25649;SDS011;13505;45.196;5.696;2023-12-20T10:28:16;9.20;;;4.63;;
25649;SDS011;13505;45.196;5.696;2023-12-20T10:33:12;8.82;;;4.68;;
25649;SDS011;13505;45.196;5.696;2023-12-20T10:38:03;9.52;;;4.40;;
25649;SDS011;13505;45.196;5.696;2023-12-20T10:42:55;8.63;;;4.63;;
25649;SDS011;13505;45.196;5.696;2023-12-20T10:47:46;9.38;;;4.90;;
25649;SDS011;13505;45.196;5.696;2023-12-20T10:52:39;6.78;;;4.32;;
25649;SDS011;13505;45.196;5.696;2023-12-20T10:57:31;7.10;;;4.53;;
25649;SDS011;13505;45.196;5.696;2023-12-20T11:02:22;9.70;;;5.40;;
25649;SDS011;13505;45.196;5.696;2023-12-20T11:17:59;14.60;;;6.00;;
25649;SDS011;13505;45.196;5.696;2023-12-20T11:22:53;14.40;;;5.85;;
25649;SDS011;13505;45.196;5.696;2023-12-20T11:27:44;10.85;;;6.32;;
25649;SDS011;13505;45.196;5.696;2023-12-20T11:32:59;16.95;;;6.68;;
25649;SDS011;13505;45.196;5.696;2023-12-20T11:37:49;10.63;;;6.27;;
25649;SDS011;13505;45.196;5.696;2023-12-20T11:42:41;13.48;;;7.53;;
25649;SDS011;13505;45.196;5.696;2023-12-20T11:47:33;20.58;;;7.50;;
25649;SDS011;13505;45.196;5.696;2023-12-20T11:52:24;12.52;;;6.75;;
25649;SDS011;13505;45.196;5.696;2023-12-20T11:57:15;11.20;;;6.90;;
25649;SDS011;13505;45.196;5.696;2023-12-20T12:02:06;12.07;;;6.63;;
25649;SDS011;13505;45.196;5.696;2023-12-20T12:06:56;10.25;;;6.70;;
25649;SDS011;13505;45.196;5.696;2023-12-20T12:11:47;11.85;;;6.90;;
25649;SDS011;13505;45.196;5.696;2023-12-20T12:16:37;11.63;;;7.65;;
25649;SDS011;13505;45.196;5.696;2023-12-20T12:21:27;11.88;;;7.50;;
25649;SDS011;13505;45.196;5.696;2023-12-20T12:26:18;14.98;;;8.20;;
25649;SDS011;13505;45.196;5.696;2023-12-20T12:31:09;12.35;;;7.80;;
25649;SDS011;13505;45.196;5.696;2023-12-20T12:36:05;13.60;;;7.53;;
25649;SDS011;13505;45.196;5.696;2023-12-20T12:40:57;13.63;;;8.18;;
25649;SDS011;13505;45.196;5.696;2023-12-20T12:45:48;15.52;;;9.50;;
25649;SDS011;13505;45.196;5.696;2023-12-20T12:50:39;13.48;;;8.15;;
25649;SDS011;13505;45.196;5.696;2023-12-20T12:55:29;14.00;;;7.87;;
25649;SDS011;13505;45.196;5.696;2023-12-20T13:00:19;12.67;;;7.73;;
25649;SDS011;13505;45.196;5.696;2023-12-20T13:05:10;13.07;;;7.88;;
25649;SDS011;13505;45.196;5.696;2023-12-20T13:10:00;13.32;;;7.10;;
25649;SDS011;13505;45.196;5.696;2023-12-20T13:14:52;12.75;;;7.43;;
25649;SDS011;13505;45.196;5.696;2023-12-20T13:19:43;11.60;;;6.97;;
25649;SDS011;13505;45.196;5.696;2023-12-20T13:24:34;10.20;;;6.53;;
25649;SDS011;13505;45.196;5.696;2023-12-20T13:29:24;10.25;;;6.45;;
25649;SDS011;13505;45.196;5.696;2023-12-20T13:34:17;10.13;;;5.97;;
25649;SDS011;13505;45.196;5.696;2023-12-20T13:39:07;11.68;;;7.25;;
25649;SDS011;13505;45.196;5.696;2023-12-20T13:43:57;10.45;;;6.40;;
25649;SDS011;13505;45.196;5.696;2023-12-20T13:48:48;12.57;;;7.20;;
25649;SDS011;13505;45.196;5.696;2023-12-20T13:53:39;13.68;;;7.97;;
25649;SDS011;13505;45.196;5.696;2023-12-20T13:58:30;12.48;;;6.80;;
25649;SDS011;13505;45.196;5.696;2023-12-20T14:03:20;12.98;;;7.50;;
25649;SDS011;13505;45.196;5.696;2023-12-20T14:08:11;14.40;;;7.60;;
25649;SDS011;13505;45.196;5.696;2023-12-20T14:13:01;11.50;;;6.45;;
25649;SDS011;13505;45.196;5.696;2023-12-20T14:17:51;11.23;;;6.53;;
25649;SDS011;13505;45.196;5.696;2023-12-20T14:22:42;8.50;;;5.25;;
25649;SDS011;13505;45.196;5.696;2023-12-20T14:27:34;8.20;;;5.18;;
25649;SDS011;13505;45.196;5.696;2023-12-20T14:32:24;11.95;;;4.97;;
25649;SDS011;13505;45.196;5.696;2023-12-20T14:37:16;12.75;;;5.70;;
25649;SDS011;13505;45.196;5.696;2023-12-20T14:42:07;9.50;;;5.60;;
25649;SDS011;13505;45.196;5.696;2023-12-20T14:47:04;8.30;;;4.82;;
25649;SDS011;13505;45.196;5.696;2023-12-20T14:51:55;6.88;;;3.90;;
25649;SDS011;13505;45.196;5.696;2023-12-20T14:56:45;6.45;;;3.55;;
25649;SDS011;13505;45.196;5.696;2023-12-20T15:01:36;7.63;;;3.53;;
25649;SDS011;13505;45.196;5.696;2023-12-20T15:06:26;5.18;;;3.15;;
25649;SDS011;13505;45.196;5.696;2023-12-20T15:11:16;6.50;;;3.22;;
25649;SDS011;13505;45.196;5.696;2023-12-20T15:16:07;6.67;;;3.57;;
25649;SDS011;13505;45.196;5.696;2023-12-20T15:20:57;7.60;;;3.65;;
25649;SDS011;13505;45.196;5.696;2023-12-20T15:25:47;5.65;;;3.38;;
25649;SDS011;13505;45.196;5.696;2023-12-20T15:30:38;9.17;;;3.30;;
25649;SDS011;13505;45.196;5.696;2023-12-20T15:35:28;7.18;;;3.95;;
25649;SDS011;13505;45.196;5.696;2023-12-20T15:40:20;6.85;;;3.35;;
25649;SDS011;13505;45.196;5.696;2023-12-20T15:45:11;7.07;;;3.40;;
25649;SDS011;13505;45.196;5.696;2023-12-20T15:50:01;6.70;;;2.95;;
25649;SDS011;13505;45.196;5.696;2023-12-20T15:54:53;6.03;;;2.65;;
25649;SDS011;13505;45.196;5.696;2023-12-20T15:59:43;8.25;;;3.22;;
25649;SDS011;13505;45.196;5.696;2023-12-20T16:04:34;7.72;;;3.25;;
25649;SDS011;13505;45.196;5.696;2023-12-20T16:09:24;8.93;;;3.50;;
25649;SDS011;13505;45.196;5.696;2023-12-20T16:14:14;8.60;;;3.50;;
25649;SDS011;13505;45.196;5.696;2023-12-20T16:19:08;8.98;;;3.67;;
25649;SDS011;13505;45.196;5.696;2023-12-20T16:23:58;7.60;;;3.13;;
25649;SDS011;13505;45.196;5.696;2023-12-20T16:28:48;7.13;;;3.00;;
25649;SDS011;13505;45.196;5.696;2023-12-20T16:33:39;4.70;;;2.63;;
25649;SDS011;13505;45.196;5.696;2023-12-20T16:38:29;7.25;;;2.53;;
25649;SDS011;13505;45.196;5.696;2023-12-20T16:43:19;3.75;;;1.90;;
25649;SDS011;13505;45.196;5.696;2023-12-20T16:48:10;10.32;;;2.53;;
25649;SDS011;13505;45.196;5.696;2023-12-20T16:53:00;8.05;;;3.13;;
25649;SDS011;13505;45.196;5.696;2023-12-20T16:57:50;7.80;;;3.58;;
25649;SDS011;13505;45.196;5.696;2023-12-20T17:02:41;5.78;;;2.85;;
25649;SDS011;13505;45.196;5.696;2023-12-20T17:07:31;6.43;;;2.53;;
25649;SDS011;13505;45.196;5.696;2023-12-20T17:12:23;9.90;;;2.17;;
25649;SDS011;13505;45.196;5.696;2023-12-20T17:17:16;7.47;;;1.88;;
25649;SDS011;13505;45.196;5.696;2023-12-20T17:22:06;7.18;;;2.30;;
25649;SDS011;13505;45.196;5.696;2023-12-20T17:26:58;6.90;;;2.50;;
25649;SDS011;13505;45.196;5.696;2023-12-20T17:31:49;16.75;;;2.92;;
25649;SDS011;13505;45.196;5.696;2023-12-20T17:36:40;5.60;;;2.80;;
25649;SDS011;13505;45.196;5.696;2023-12-20T17:41:31;14.85;;;4.15;;
25649;SDS011;13505;45.196;5.696;2023-12-20T17:46:22;12.77;;;3.97;;
25649;SDS011;13505;45.196;5.696;2023-12-20T17:51:13;10.83;;;3.37;;
25649;SDS011;13505;45.196;5.696;2023-12-20T17:56:04;13.40;;;4.88;;
25649;SDS011;13505;45.196;5.696;2023-12-20T18:00:54;13.07;;;3.40;;
25649;SDS011;13505;45.196;5.696;2023-12-20T18:05:45;9.67;;;3.30;;
25649;SDS011;13505;45.196;5.696;2023-12-20T18:10:35;10.00;;;3.07;;
25649;SDS011;13505;45.196;5.696;2023-12-20T18:15:25;8.27;;;3.20;;
25649;SDS011;13505;45.196;5.696;2023-12-20T18:20:16;7.78;;;3.42;;
25649;SDS011;13505;45.196;5.696;2023-12-20T18:25:07;9.80;;;3.05;;
25649;SDS011;13505;45.196;5.696;2023-12-20T18:29:57;10.50;;;2.90;;
25649;SDS011;13505;45.196;5.696;2023-12-20T18:34:55;5.25;;;2.55;;
25649;SDS011;13505;45.196;5.696;2023-12-20T18:39:45;10.55;;;3.22;;
25649;SDS011;13505;45.196;5.696;2023-12-20T18:44:36;10.35;;;3.42;;
25649;SDS011;13505;45.196;5.696;2023-12-20T18:49:27;6.57;;;2.63;;
25649;SDS011;13505;45.196;5.696;2023-12-20T18:54:17;7.63;;;2.72;;
25649;SDS011;13505;45.196;5.696;2023-12-20T18:59:08;5.43;;;2.72;;
25649;SDS011;13505;45.196;5.696;2023-12-20T19:03:59;9.23;;;3.65;;
25649;SDS011;13505;45.196;5.696;2023-12-20T19:08:49;7.50;;;2.63;;
25649;SDS011;13505;45.196;5.696;2023-12-20T19:13:42;7.20;;;3.30;;
25649;SDS011;13505;45.196;5.696;2023-12-20T19:18:32;10.70;;;4.00;;
25649;SDS011;13505;45.196;5.696;2023-12-20T19:23:23;14.77;;;4.20;;
25649;SDS011;13505;45.196;5.696;2023-12-20T19:28:13;19.95;;;4.68;;
25649;SDS011;13505;45.196;5.696;2023-12-20T19:33:04;10.98;;;3.85;;
25649;SDS011;13505;45.196;5.696;2023-12-20T19:37:54;6.07;;;3.10;;
25649;SDS011;13505;45.196;5.696;2023-12-20T19:42:45;9.90;;;3.45;;
25649;SDS011;13505;45.196;5.696;2023-12-20T19:47:36;7.03;;;3.30;;
25649;SDS011;13505;45.196;5.696;2023-12-20T19:52:26;7.38;;;3.10;;
25649;SDS011;13505;45.196;5.696;2023-12-20T19:57:18;7.05;;;3.10;;
25649;SDS011;13505;45.196;5.696;2023-12-20T20:02:08;5.90;;;2.80;;
25649;SDS011;13505;45.196;5.696;2023-12-20T20:06:59;7.78;;;2.60;;
25649;SDS011;13505;45.196;5.696;2023-12-20T20:11:49;9.45;;;2.65;;
25649;SDS011;13505;45.196;5.696;2023-12-20T20:16:39;8.25;;;2.83;;
25649;SDS011;13505;45.196;5.696;2023-12-20T20:21:31;5.35;;;2.65;;
25649;SDS011;13505;45.196;5.696;2023-12-20T20:26:21;8.77;;;2.73;;
25649;SDS011;13505;45.196;5.696;2023-12-20T20:31:12;7.10;;;2.60;;
25649;SDS011;13505;45.196;5.696;2023-12-20T20:36:02;7.72;;;2.70;;
25649;SDS011;13505;45.196;5.696;2023-12-20T20:40:55;8.70;;;2.28;;
25649;SDS011;13505;45.196;5.696;2023-12-20T20:45:45;7.85;;;2.47;;
25649;SDS011;13505;45.196;5.696;2023-12-20T20:50:35;11.27;;;2.28;;
25649;SDS011;13505;45.196;5.696;2023-12-20T20:55:26;6.72;;;2.38;;
25649;SDS011;13505;45.196;5.696;2023-12-20T21:00:16;4.32;;;2.25;;
25649;SDS011;13505;45.196;5.696;2023-12-20T21:05:07;3.60;;;1.90;;
25649;SDS011;13505;45.196;5.696;2023-12-20T21:09:58;9.10;;;3.10;;
25649;SDS011;13505;45.196;5.696;2023-12-20T21:14:48;7.10;;;2.50;;
25649;SDS011;13505;45.196;5.696;2023-12-20T21:19:39;7.97;;;2.75;;
25649;SDS011;13505;45.196;5.696;2023-12-20T21:24:29;10.82;;;2.83;;
25649;SDS011;13505;45.196;5.696;2023-12-20T21:29:19;12.50;;;3.97;;
25649;SDS011;13505;45.196;5.696;2023-12-20T21:34:10;8.30;;;3.50;;
25649;SDS011;13505;45.196;5.696;2023-12-20T21:39:00;12.07;;;7.63;;
25649;SDS011;13505;45.196;5.696;2023-12-20T21:43:51;8.88;;;3.22;;
25649;SDS011;13505;45.196;5.696;2023-12-20T21:48:42;8.15;;;3.20;;
25649;SDS011;13505;45.196;5.696;2023-12-20T21:53:33;12.95;;;3.75;;
25649;SDS011;13505;45.196;5.696;2023-12-20T21:58:23;8.75;;;3.50;;
25649;SDS011;13505;45.196;5.696;2023-12-20T22:03:13;5.90;;;3.13;;
25649;SDS011;13505;45.196;5.696;2023-12-20T22:08:04;8.63;;;3.63;;
25649;SDS011;13505;45.196;5.696;2023-12-20T22:12:56;7.50;;;3.45;;
25649;SDS011;13505;45.196;5.696;2023-12-20T22:17:46;8.52;;;3.85;;
25649;SDS011;13505;45.196;5.696;2023-12-20T22:22:36;7.32;;;4.40;;
25649;SDS011;13505;45.196;5.696;2023-12-20T22:27:27;10.50;;;4.93;;
25649;SDS011;13505;45.196;5.696;2023-12-20T22:32:17;11.52;;;4.80;;
25649;SDS011;13505;45.196;5.696;2023-12-20T22:37:08;10.77;;;5.95;;
25649;SDS011;13505;45.196;5.696;2023-12-20T22:41:58;13.98;;;6.45;;
25649;SDS011;13505;45.196;5.696;2023-12-20T22:46:48;17.08;;;6.70;;
25649;SDS011;13505;45.196;5.696;2023-12-20T22:51:39;12.17;;;5.97;;
25649;SDS011;13505;45.196;5.696;2023-12-20T22:56:29;11.90;;;4.90;;
